Time;durP1;ratioP1;P1;durP2;ratioP2;P2;SDS_P1;SDS_P2;PMS_P1;PMS_P2;Temp;Humidity;BMP_temperature;BMP_pressure;BME280_temperature;BME280_humidity;BME280_pressure;Samples;Min_cycle;Max_cycle;Signal;HPM_P1;HPM_P2
2022/11/17 00:08:15;;;;;;;4.78;3.85;;;;;;;16.69;79.54;99091.38;20750139;28;20054;-85
2022/11/17 00:29:04;;;;;;;4.70;4.10;;;;;;;16.68;79.32;99044.84;20777409;28;20493;-85
2022/11/17 00:39:07;;;;;;;4.82;3.65;;;;;;;16.67;79.20;99024.38;20727255;28;20057;-85
2022/11/17 00:49:09;;;;;;;4.65;3.75;;;;;;;16.67;78.50;99010.94;20750921;28;20061;-85
2022/11/17 00:59:11;;;;;;;4.82;3.65;;;;;;;16.57;78.77;98972.72;20754952;28;20076;-85
2022/11/17 01:09:18;;;;;;;4.82;3.75;;;;;;;16.67;78.57;98961.75;20739735;28;20060;-85
2022/11/17 01:19:20;;;;;;;3.95;3.50;;;;;;;16.66;78.58;98955.53;20764288;28;20076;-85
2022/11/17 01:29:22;;;;;;;3.90;3.33;;;;;;;16.66;78.42;98922.47;20754939;28;20485;-85
2022/11/17 01:39:25;;;;;;;4.30;3.47;;;;;;;16.65;78.23;98900.13;20788284;28;20072;-85
2022/11/17 01:49:27;;;;;;;3.75;3.35;;;;;;;16.65;78.24;98881.31;20745345;28;20057;-85
2022/11/17 01:59:38;;;;;;;3.83;3.08;;;;;;;16.64;77.86;98857.34;20757412;28;20042;-85
2022/11/17 02:09:40;;;;;;;3.42;2.90;;;;;;;16.40;77.85;98804.63;20737358;28;20053;-85
2022/11/17 02:19:43;;;;;;;3.00;2.67;;;;;;;16.63;77.91;98848.44;20739728;28;20104;-85
2022/11/17 02:29:52;;;;;;;3.20;2.85;;;;;;;16.22;77.74;98760.91;20771307;28;20091;-86
2022/11/17 02:40:09;;;;;;;3.20;2.90;;;;;;;16.62;77.66;98819.88;20743393;28;20107;-85
2022/11/17 02:50:11;;;;;;;3.88;3.10;;;;;;;16.63;77.72;98791.19;20779656;28;20052;-85
2022/11/17 03:00:15;;;;;;;3.70;2.75;;;;;;;16.56;77.51;98766.88;20767286;28;20053;-86
2022/11/17 03:10:20;;;;;;;3.53;2.90;;;;;;;16.60;77.29;98749.38;20744222;28;20111;-85
2022/11/17 03:20:25;;;;;;;3.13;2.80;;;;;;;16.61;77.25;98737.63;20784344;28;20073;-84
2022/11/17 03:30:27;;;;;;;2.42;2.22;;;;;;;16.60;77.35;98725.22;20741927;28;20511;-84
2022/11/17 03:40:35;;;;;;;2.50;2.30;;;;;;;16.51;77.44;98697.56;20742145;28;20068;-84
2022/11/17 03:50:45;;;;;;;2.60;2.15;;;;;;;16.30;77.69;98647.22;20754504;28;20056;-84
2022/11/17 04:00:49;;;;;;;2.40;2.20;;;;;;;16.42;77.90;98644.13;20773181;28;20132;-84
2022/11/17 04:21:11;;;;;;;3.15;2.30;;;;;;;16.59;77.69;98640.28;20760971;28;20073;-85
2022/11/17 04:31:16;;;;;;;2.30;2.10;;;;;;;16.60;77.85;98635.75;20757281;28;20053;-85
2022/11/17 04:51:40;;;;;;;2.15;1.77;;;;;;;16.58;77.74;98611.75;20714212;28;20085;-84
2022/11/17 05:01:42;;;;;;;2.38;1.88;;;;;;;16.58;77.50;98614.41;20755309;28;20562;-84
2022/11/17 05:32:24;;;;;;;1.48;1.38;;;;;;;16.58;77.49;98609.06;20782873;28;20057;-85
2022/11/17 05:42:26;;;;;;;1.77;1.52;;;;;;;16.28;77.33;98549.94;20759977;28;20561;-85
2022/11/17 05:52:27;;;;;;;2.25;1.67;;;;;;;16.59;77.11;98597.28;20747238;28;20049;-87
2022/11/17 06:02:50;;;;;;;1.58;1.45;;;;;;;16.13;77.44;98515.03;20757314;28;20057;-90
2022/11/17 06:12:52;;;;;;;1.45;1.20;;;;;;;16.70;76.42;98568.28;20729298;28;20056;-86
2022/11/17 06:22:55;;;;;;;4.05;1.67;;;;;;;16.79;76.97;98559.97;20747180;28;20145;-87
2022/11/17 06:32:57;;;;;;;5.30;1.20;;;;;;;16.86;75.38;98548.47;20769351;28;20140;-86
2022/11/17 06:43:11;;;;;;;1.98;1.20;;;;;;;16.90;75.87;98550.59;20766939;28;20329;-85
2022/11/17 06:53:12;;;;;;;1.95;1.10;;;;;;;16.89;76.45;98537.34;20757422;28;20061;-85
2022/11/17 07:03:14;;;;;;;1.75;1.20;;;;;;;16.84;76.42;98524.47;20763770;28;20054;-85
2022/11/17 07:13:15;;;;;;;1.35;1.10;;;;;;;16.80;76.41;98521.31;20770532;28;20048;-84
2022/11/17 07:23:16;;;;;;;1.52;1.20;;;;;;;16.43;76.16;98464.00;20784331;28;20050;-84
2022/11/17 07:33:18;;;;;;;1.55;1.20;;;;;;;16.73;76.55;98523.09;20757571;28;20515;-85
2022/11/17 07:43:20;;;;;;;1.08;0.98;;;;;;;16.62;77.07;98510.13;20760267;28;20053;-86
2022/11/17 07:53:21;;;;;;;1.20;1.10;;;;;;;16.44;77.08;98489.84;20773608;28;20046;-85
2022/11/17 08:03:23;;;;;;;1.42;1.33;;;;;;;16.71;77.15;98532.34;20794727;28;20064;-85
2022/11/17 08:13:24;;;;;;;1.42;0.90;;;;;;;16.68;77.15;98512.88;20753302;28;20477;-84
2022/11/17 08:23:26;;;;;;;0.93;0.90;;;;;;;16.37;76.98;98467.44;20773847;28;20054;-85
2022/11/17 08:33:28;;;;;;;1.70;1.00;;;;;;;16.60;77.20;98506.81;20775093;28;20189;-85
2022/11/17 08:43:29;;;;;;;0.88;0.70;;;;;;;16.66;77.32;98531.06;20759051;28;20433;-85
2022/11/17 08:53:31;;;;;;;0.70;0.70;;;;;;;16.65;77.37;98524.00;20750901;28;20061;-85
2022/11/17 09:03:32;;;;;;;0.93;0.90;;;;;;;16.66;77.60;98536.44;20778168;28;20136;-85
2022/11/17 09:13:34;;;;;;;1.15;0.93;;;;;;;16.66;77.53;98540.97;20747276;28;20490;-85
2022/11/17 09:23:36;;;;;;;1.15;0.80;;;;;;;16.65;77.45;98550.88;20759926;28;20049;-85
2022/11/17 09:33:38;;;;;;;1.00;0.90;;;;;;;16.65;77.37;98534.75;20779781;28;20045;-84
2022/11/17 09:43:49;;;;;;;1.10;0.90;;;;;;;16.66;77.43;98557.09;20746029;28;20041;-85
2022/11/17 09:53:57;;;;;;;1.40;1.10;;;;;;;16.63;77.46;98555.59;20763711;28;20506;-85
2022/11/17 10:04:00;;;;;;;1.35;1.00;;;;;;;16.46;77.52;98546.88;20737456;28;20053;-85
2022/11/17 10:14:10;;;;;;;1.15;0.90;;;;;;;16.65;77.36;98572.38;20774066;28;20050;-85
2022/11/17 10:24:33;;;;;;;0.70;0.70;;;;;;;16.63;77.38;98577.09;20760454;28;20498;-85
2022/11/17 10:34:37;;;;;;;0.77;0.60;;;;;;;16.63;77.20;98579.78;20776824;28;20049;-85
2022/11/17 10:44:43;;;;;;;0.93;0.80;;;;;;;16.65;77.11;98582.28;20777072;28;20510;-85
2022/11/17 10:54:44;;;;;;;1.00;0.88;;;;;;;16.64;76.98;98594.06;20753448;28;20057;-85
2022/11/17 11:04:46;;;;;;;0.98;0.77;;;;;;;16.63;77.03;98585.16;20758907;28;20077;-86
2022/11/17 11:14:52;;;;;;;0.73;0.68;;;;;;;16.64;77.01;98594.06;20783546;28;20049;-86
2022/11/17 11:25:03;;;;;;;1.20;0.70;;;;;;;16.63;77.15;98595.91;20767074;28;20453;-85
2022/11/17 11:35:31;;;;;;;0.60;0.60;;;;;;;16.64;77.13;98596.75;20776739;28;20103;-85
2022/11/17 11:45:54;;;;;;;0.40;0.40;;;;;;;16.63;77.10;98601.28;20764201;28;20633;-85
2022/11/17 11:56:06;;;;;;;0.68;0.60;;;;;;;16.64;77.12;98608.31;20770814;28;20052;-85
2022/11/17 12:06:39;;;;;;;0.50;0.47;;;;;;;16.63;76.90;98612.00;20769174;28;20052;-85
2022/11/17 12:16:43;;;;;;;0.70;0.50;;;;;;;16.43;76.95;98584.03;20754145;28;20140;-85
2022/11/17 12:26:44;;;;;;;0.50;0.50;;;;;;;16.55;76.99;98620.16;20779166;28;20132;-86
2022/11/17 12:37:13;;;;;;;1.50;0.60;;;;;;;16.64;76.96;98634.34;20777325;28;20052;-86
2022/11/17 12:47:20;;;;;;;0.35;0.30;;;;;;;16.48;77.02;98600.44;20767310;28;20461;-85
2022/11/17 12:57:27;;;;;;;0.35;0.35;;;;;;;16.63;76.96;98633.50;20763355;28;20053;-85
2022/11/17 13:07:29;;;;;;;0.52;0.40;;;;;;;16.63;76.83;98649.63;20750623;28;20050;-85
2022/11/17 13:17:41;;;;;;;0.40;0.40;;;;;;;16.45;76.77;98627.66;20741636;28;20049;-85
2022/11/17 13:27:44;;;;;;;0.70;0.38;;;;;;;16.45;77.00;98633.84;20742261;28;20087;-85
2022/11/17 13:38:02;;;;;;;0.40;0.40;;;;;;;16.57;76.76;98654.88;20743559;28;20048;-85
2022/11/17 13:48:04;;;;;;;0.57;0.40;;;;;;;16.63;76.96;98676.50;20750586;28;20054;-85
2022/11/17 13:58:14;;;;;;;0.40;0.40;;;;;;;16.53;76.61;98667.88;20724237;28;20049;-93
2022/11/17 14:08:26;;;;;;;0.40;0.40;;;;;;;16.63;76.78;98695.28;20735464;28;20053;-86
2022/11/17 14:18:36;;;;;;;0.30;0.30;;;;;;;16.50;77.06;98692.41;20751557;28;20132;-87
2022/11/17 14:28:37;;;;;;;0.70;0.30;;;;;;;16.63;77.21;98710.59;20773928;28;20053;-85
2022/11/17 14:38:39;;;;;;;0.65;0.40;;;;;;;16.62;77.13;98717.81;20788840;28;20054;-86
2022/11/17 14:48:41;;;;;;;0.32;0.32;;;;;;;16.63;77.37;98724.84;20797419;28;20426;-87
2022/11/17 14:58:42;;;;;;;0.52;0.35;;;;;;;16.53;77.51;98713.53;20799329;28;20571;-86
2022/11/17 15:08:44;;;;;;;0.88;0.40;;;;;;;16.40;77.95;98707.94;20792959;28;20065;-87
2022/11/17 15:18:46;;;;;;;0.30;0.30;;;;;;;16.31;78.09;98713.34;20747831;28;20060;-86
2022/11/17 15:28:48;;;;;;;1.48;0.47;;;;;;;16.62;78.20;98774.22;20761769;28;20556;-88
2022/11/17 15:38:52;;;;;;;0.63;0.43;;;;;;;16.43;78.25;98750.53;20767845;28;20056;-87
2022/11/17 15:48:54;;;;;;;0.57;0.40;;;;;;;16.62;78.20;98795.72;20771424;28;20439;-89
2022/11/17 15:59:04;;;;;;;1.25;0.43;;;;;;;16.63;78.36;98805.44;20754436;28;20136;-89
2022/11/17 16:09:06;;;;;;;0.30;0.30;;;;;;;16.62;78.35;98814.50;20746459;28;20037;-86
2022/11/17 16:19:07;;;;;;;0.65;0.25;;;;;;;16.62;78.29;98819.88;20754210;28;20049;-86
2022/11/17 16:29:09;;;;;;;1.25;0.30;;;;;;;16.62;78.54;98829.81;20754993;28;20049;-86
2022/11/17 16:39:12;;;;;;;0.30;0.30;;;;;;;16.62;78.58;98846.75;20764653;28;20054;-87
2022/11/17 16:49:16;;;;;;;0.50;0.30;;;;;;;16.61;78.82;98850.47;20762166;28;20046;-86
2022/11/17 16:59:18;;;;;;;0.30;0.30;;;;;;;16.62;78.71;98852.13;20763374;28;20626;-86
2022/11/17 17:09:21;;;;;;;0.30;0.30;;;;;;;16.61;78.86;98855.81;20772613;28;20053;-87
2022/11/17 17:19:28;;;;;;;0.50;0.40;;;;;;;16.63;78.91;98864.53;20759374;28;20434;-87
2022/11/17 17:29:29;;;;;;;0.30;0.30;;;;;;;16.62;78.95;98889.75;20751220;28;20045;-86
2022/11/17 17:39:32;;;;;;;0.40;0.30;;;;;;;16.62;78.81;98895.09;20746935;28;20053;-86
2022/11/17 17:49:33;;;;;;;0.77;0.45;;;;;;;16.62;78.99;98905.84;20751153;28;20057;-86
2022/11/17 17:59:35;;;;;;;0.45;0.30;;;;;;;16.30;78.95;98856.66;20752186;28;20041;-87
2022/11/17 18:09:36;;;;;;;0.40;0.30;;;;;;;16.21;78.99;98860.41;20747399;28;20045;-87
2022/11/17 18:19:37;;;;;;;0.40;0.30;;;;;;;16.50;79.22;98923.41;20760501;28;20057;-86
2022/11/17 18:29:39;;;;;;;1.60;0.60;;;;;;;16.62;79.30;98959.59;20777963;28;20058;-87
2022/11/17 18:39:40;;;;;;;0.30;0.30;;;;;;;16.52;79.25;98951.72;20760902;28;20057;-90
2022/11/17 18:49:41;;;;;;;1.58;0.70;;;;;;;16.63;79.92;98965.81;20760099;28;20083;-86
2022/11/17 18:59:43;;;;;;;1.20;0.50;;;;;;;16.67;81.09;98976.00;20783228;28;20052;-85
2022/11/17 19:09:44;;;;;;;0.98;0.50;;;;;;;16.66;82.25;98986.94;20775501;28;20060;-85
2022/11/17 19:19:46;;;;;;;0.82;0.40;;;;;;;16.45;83.06;98963.38;20770656;28;20395;-86
2022/11/17 19:29:47;;;;;;;2.67;0.43;;;;;;;16.63;84.07;99004.25;20751789;28;20473;-86
2022/11/17 19:39:48;;;;;;;1.67;0.80;;;;;;;16.64;84.93;99021.22;20782712;28;20057;-85
2022/11/17 19:49:50;;;;;;;0.98;0.45;;;;;;;16.63;85.19;99036.50;20768918;28;20857;-86
2022/11/17 19:59:51;;;;;;;0.50;0.47;;;;;;;16.63;85.85;99052.59;20711462;28;20112;-86
2022/11/17 20:09:53;;;;;;;0.65;0.40;;;;;;;16.63;86.31;99057.97;20705120;28;20046;-86
2022/11/17 20:19:54;;;;;;;0.40;0.40;;;;;;;16.34;86.88;99035.22;20696054;28;20057;-85
2022/11/17 20:29:56;;;;;;;3.00;0.60;;;;;;;16.62;87.64;99096.59;20715092;28;20057;-85
2022/11/17 20:39:57;;;;;;;0.43;0.43;;;;;;;16.62;87.59;99110.03;20700026;28;20410;-85
2022/11/17 20:49:58;;;;;;;0.30;0.30;;;;;;;16.63;88.27;99118.94;20721453;28;20060;-85
2022/11/17 21:00:00;;;;;;;1.10;0.20;;;;;;;16.63;88.63;99129.69;20777466;28;20095;-86
2022/11/17 21:10:01;;;;;;;1.20;0.30;;;;;;;16.63;89.22;99137.75;20750014;28;20065;-86
2022/11/17 21:20:03;;;;;;;0.43;0.30;;;;;;;16.62;89.45;99144.97;20782575;28;20045;-86
2022/11/17 21:30:05;;;;;;;0.73;0.40;;;;;;;16.63;89.66;99165.44;20764200;28;20052;-85
2022/11/17 21:40:07;;;;;;;0.40;0.40;;;;;;;16.60;89.87;99165.78;20767770;28;20853;-85
2022/11/17 21:50:09;;;;;;;0.80;0.40;;;;;;;16.61;90.17;99180.06;20745685;28;20480;-85
2022/11/17 22:00:11;;;;;;;0.30;0.30;;;;;;;16.62;90.42;99184.44;20769572;28;20057;-84
2022/11/17 22:10:12;;;;;;;0.40;0.28;;;;;;;16.56;90.55;99193.16;20739566;28;20107;-85
2022/11/17 22:20:14;;;;;;;1.15;0.30;;;;;;;16.61;90.72;99215.81;20773516;28;20503;-86
2022/11/17 22:30:15;;;;;;;0.75;0.40;;;;;;;16.34;91.27;99177.56;20760885;28;20060;-85
2022/11/17 22:40:17;;;;;;;0.38;0.30;;;;;;;16.61;91.24;99231.94;20781579;28;20053;-86
2022/11/17 22:50:18;;;;;;;0.43;0.30;;;;;;;16.43;91.42;99209.81;20760195;28;20587;-86
2022/11/17 23:00:20;;;;;;;0.68;0.45;;;;;;;16.62;91.73;99260.50;20736302;28;20057;-85
2022/11/17 23:10:21;;;;;;;0.95;0.50;;;;;;;16.62;91.92;99262.34;20777109;28;20118;-85
2022/11/17 23:20:23;;;;;;;0.43;0.40;;;;;;;16.62;92.04;99267.72;20791508;28;20135;-85
2022/11/17 23:30:24;;;;;;;0.68;0.50;;;;;;;16.62;92.03;99289.22;20785963;28;20463;-85
2022/11/17 23:40:26;;;;;;;0.47;0.47;;;;;;;16.62;92.16;99303.47;20779516;28;20059;-85
2022/11/17 23:50:27;;;;;;;0.38;0.38;;;;;;;16.62;92.22;99306.16;20746361;28;20058;-86
